createdAt,value
2023-04-02T00:01:33.723Z,67.70
2023-04-02T00:05:19.571Z,67.70
2023-04-02T00:09:23.165Z,67.80
2023-04-02T00:13:11.212Z,67.70
2023-04-02T00:16:58.179Z,67.80
2023-04-02T00:20:43.877Z,67.70
2023-04-02T00:24:25.925Z,67.70
2023-04-02T00:28:10.261Z,67.70
2023-04-02T00:31:53.967Z,67.70
2023-04-02T00:35:39.413Z,67.70
2023-04-02T00:39:28.423Z,67.60
2023-04-02T00:43:16.480Z,67.70
2023-04-02T00:46:59.113Z,67.80
2023-04-02T00:50:42.823Z,67.70
2023-04-02T00:54:27.620Z,67.60
2023-04-02T00:58:25.935Z,67.60
2023-04-02T01:02:19.586Z,67.70
2023-04-02T01:06:17.066Z,67.60
2023-04-02T01:10:01.531Z,67.60
2023-04-02T01:13:59.446Z,67.60
2023-04-02T01:18:10.174Z,67.60
2023-04-02T01:22:14.007Z,67.60
2023-04-02T01:26:26.349Z,67.70
2023-04-02T01:30:11.933Z,67.50
2023-04-02T01:33:54.764Z,67.60
2023-04-02T01:37:56.469Z,67.50
2023-04-02T01:41:52.360Z,67.50
2023-04-02T01:45:35.249Z,67.50
2023-04-02T01:49:22.662Z,67.50
2023-04-02T01:53:08.181Z,67.50
2023-04-02T01:56:51.651Z,68.10
2023-04-02T02:00:36.299Z,67.50
2023-04-02T02:04:18.992Z,67.40
2023-04-02T02:08:01.351Z,67.50
2023-04-02T02:11:43.228Z,67.50
2023-04-02T02:15:25.597Z,67.50
2023-04-02T02:19:40.347Z,67.50
2023-04-02T02:23:22.662Z,67.40
2023-04-02T02:27:16.480Z,67.40
2023-04-02T02:31:03.970Z,67.40
2023-04-02T02:34:59.989Z,67.40
2023-04-02T02:38:54.090Z,67.40
2023-04-02T02:42:43.264Z,67.40
2023-04-02T02:46:26.738Z,67.40
2023-04-02T02:50:20.825Z,67.30
2023-04-02T02:54:04.399Z,67.40
2023-04-02T02:57:57.795Z,67.40
2023-04-02T03:01:40.103Z,67.40
2023-04-02T03:05:25.094Z,67.40
2023-04-02T03:09:27.305Z,67.40
2023-04-02T03:13:35.562Z,67.40
2023-04-02T03:17:34.786Z,67.40
2023-04-02T03:21:39.000Z,67.40
2023-04-02T03:25:31.392Z,67.40
2023-04-02T03:29:27.981Z,67.40
2023-04-02T03:33:23.662Z,67.40
2023-04-02T03:37:30.843Z,67.40
2023-04-02T03:41:40.280Z,67.30
2023-04-02T03:45:29.331Z,67.40
2023-04-02T03:49:23.799Z,67.40
2023-04-02T03:53:05.771Z,67.40
2023-04-02T03:56:48.457Z,67.40
2023-04-02T04:00:54.493Z,67.40
2023-04-02T04:04:40.890Z,67.40
2023-04-02T04:08:27.402Z,67.30
2023-04-02T04:12:30.042Z,67.30
2023-04-02T04:16:24.802Z,67.40
2023-04-02T04:20:29.728Z,67.40
2023-04-02T04:24:24.172Z,67.30
2023-04-02T04:28:39.276Z,67.30
2023-04-02T04:32:38.975Z,67.30
2023-04-02T04:36:27.732Z,67.30
2023-04-02T04:40:16.623Z,67.30
2023-04-02T04:44:43.327Z,67.30
2023-04-02T04:48:36.487Z,67.40
2023-04-02T04:52:24.228Z,67.30
2023-04-02T04:56:18.806Z,67.30
2023-04-02T05:00:07.955Z,67.30
2023-04-02T05:04:10.530Z,67.20
2023-04-02T05:07:59.960Z,67.30
2023-04-02T05:11:47.227Z,67.20
2023-04-02T05:16:03.075Z,67.30
2023-04-02T05:19:56.756Z,67.30
2023-04-02T05:23:48.855Z,67.20
2023-04-02T05:27:41.845Z,67.20
2023-04-02T05:31:31.125Z,67.20
2023-04-02T05:35:18.978Z,67.20
2023-04-02T05:39:00.992Z,67.20
2023-04-02T05:42:48.098Z,67.10
2023-04-02T05:46:36.121Z,67.10
2023-04-02T05:50:33.514Z,67.20
2023-04-02T05:54:23.270Z,67.10
2023-04-02T06:02:17.470Z,67.10
2023-04-02T06:06:05.264Z,67.10
2023-04-02T06:09:55.743Z,67.10
2023-04-02T06:13:37.973Z,67.10
2023-04-02T06:17:20.763Z,67.80
2023-04-02T06:21:04.264Z,67.10
2023-04-02T06:24:50.465Z,67.10
2023-04-02T06:28:58.353Z,67.10
2023-04-02T06:32:40.140Z,67.10
2023-04-02T06:36:23.977Z,67.10
2023-04-02T06:40:18.045Z,67.10
2023-04-02T06:44:22.580Z,67.10
2023-04-02T06:48:04.940Z,67.10
2023-04-02T06:51:48.998Z,67.00
2023-04-02T06:55:45.920Z,67.10
2023-04-02T06:59:27.725Z,67.10
2023-04-02T07:03:21.785Z,67.10
2023-04-02T07:07:03.634Z,67.00
2023-04-02T07:10:45.740Z,67.10
2023-04-02T07:14:27.492Z,67.10
2023-04-02T07:18:26.937Z,67.60
2023-04-02T07:22:08.618Z,67.00
2023-04-02T07:25:54.090Z,67.00
2023-04-02T07:29:38.064Z,67.00
2023-04-02T07:33:25.887Z,67.00
2023-04-02T07:37:09.715Z,67.00
2023-04-02T07:40:51.598Z,67.00
2023-04-02T07:44:33.300Z,67.00
2023-04-02T07:48:15.302Z,67.00
2023-04-02T07:51:57.144Z,67.00
2023-04-02T07:55:38.853Z,67.00
2023-04-02T07:59:21.182Z,67.00
2023-04-02T08:03:04.655Z,67.00
2023-04-02T08:06:47.427Z,67.00
2023-04-02T08:10:29.159Z,67.00
2023-04-02T08:14:11.456Z,67.00
2023-04-02T08:17:53.619Z,67.00
2023-04-02T08:21:35.914Z,67.00
2023-04-02T08:25:17.933Z,67.00
2023-04-02T08:28:59.694Z,67.00
2023-04-02T08:32:41.620Z,67.00
2023-04-02T08:36:33.468Z,67.00
2023-04-02T08:40:27.352Z,67.00
2023-04-02T08:44:14.958Z,67.00
2023-04-02T08:47:59.892Z,67.00
2023-04-02T08:51:41.778Z,66.90
2023-04-02T08:55:30.047Z,67.00
2023-04-02T08:59:29.903Z,67.00
2023-04-02T09:03:39.436Z,67.00
2023-04-02T09:07:21.797Z,66.90
2023-04-02T09:11:17.308Z,67.00
2023-04-02T09:15:11.068Z,67.00
2023-04-02T09:18:54.716Z,67.00
2023-04-02T09:22:36.469Z,67.00
2023-04-02T09:26:31.323Z,67.00
2023-04-02T09:30:40.349Z,67.00
2023-04-02T09:34:31.658Z,67.00
2023-04-02T09:38:21.592Z,67.00
2023-04-02T09:42:08.520Z,67.00
2023-04-02T09:45:59.363Z,67.00
2023-04-02T09:49:41.229Z,67.00
2023-04-02T09:53:33.431Z,67.00
2023-04-02T09:57:24.806Z,67.00
2023-04-02T10:01:10.865Z,67.00
2023-04-02T10:04:53.005Z,67.00
2023-04-02T10:08:36.174Z,67.00
2023-04-02T10:12:18.079Z,67.00
2023-04-02T10:16:11.487Z,67.00
2023-04-02T10:20:01.637Z,67.00
2023-04-02T10:23:43.628Z,67.00
2023-04-02T10:27:26.163Z,67.00
2023-04-02T10:31:22.538Z,67.00
2023-04-02T10:35:14.039Z,67.00
2023-04-02T10:39:01.786Z,67.00
2023-04-02T10:43:09.401Z,67.00
2023-04-02T10:47:16.377Z,66.90
2023-04-02T10:51:21.284Z,67.00
2023-04-02T10:55:23.584Z,66.90
2023-04-02T10:59:16.778Z,66.90
2023-04-02T11:03:02.182Z,67.00
2023-04-02T11:06:46.379Z,66.90
2023-04-02T11:10:32.336Z,66.90
2023-04-02T11:14:15.849Z,66.80
2023-04-02T11:17:58.012Z,67.00
2023-04-02T11:21:58.115Z,66.90
2023-04-02T11:25:42.686Z,66.80
2023-04-02T11:29:29.634Z,66.90
2023-04-02T11:33:38.332Z,66.80
2023-04-02T11:37:42.714Z,66.90
2023-04-02T11:41:59.705Z,67.00
2023-04-02T11:45:52.652Z,66.80
2023-04-02T11:49:39.835Z,66.80
2023-04-02T11:53:32.262Z,66.80
2023-04-02T11:57:46.868Z,66.70
2023-04-02T12:01:50.356Z,66.80
2023-04-02T12:05:43.061Z,66.70
2023-04-02T12:09:27.214Z,66.80
2023-04-02T12:13:41.183Z,66.80
2023-04-02T12:17:35.471Z,66.80
2023-04-02T12:21:23.346Z,66.70
2023-04-02T12:25:22.932Z,66.70
2023-04-02T12:29:25.098Z,66.70
2023-04-02T12:33:19.798Z,66.70
2023-04-02T12:37:04.192Z,66.70
2023-04-02T12:41:05.836Z,66.70
2023-04-02T12:44:50.666Z,66.80
2023-04-02T12:48:34.715Z,66.70
2023-04-02T12:52:19.635Z,66.60
2023-04-02T12:56:01.818Z,66.60
2023-04-02T12:59:43.988Z,66.60
2023-04-02T13:03:29.067Z,66.60
2023-04-02T13:07:20.001Z,66.60
2023-04-02T13:11:04.410Z,66.50
2023-04-02T13:14:46.255Z,66.60
2023-04-02T13:18:28.074Z,66.60
2023-04-02T13:22:30.847Z,66.50
2023-04-02T13:26:20.198Z,66.50
2023-04-02T13:30:10.111Z,66.50
2023-04-02T13:33:51.903Z,66.50
2023-04-02T13:37:33.668Z,66.40
2023-04-02T13:41:26.346Z,66.40
2023-04-02T13:45:20.203Z,66.40
2023-04-02T13:49:02.385Z,66.40
2023-04-02T13:52:44.520Z,66.40
2023-04-02T13:56:26.335Z,66.30
2023-04-02T14:00:10.118Z,66.40
2023-04-02T14:03:54.513Z,66.30
2023-04-02T14:07:45.613Z,66.30
2023-04-02T14:11:39.251Z,66.40
2023-04-02T14:15:40.426Z,66.30
2023-04-02T14:19:31.707Z,66.30
2023-04-02T14:23:16.420Z,66.30
2023-04-02T14:27:04.345Z,66.40
2023-04-02T14:31:12.460Z,66.30
2023-04-02T14:35:37.187Z,66.30
2023-04-02T14:39:52.337Z,66.40
2023-04-02T14:43:59.717Z,67.00
2023-04-02T14:47:50.445Z,66.30
2023-04-02T14:51:38.103Z,67.00
2023-04-02T14:55:31.445Z,67.00
2023-04-02T14:59:31.224Z,66.40
2023-04-02T15:03:21.305Z,66.90
2023-04-02T15:07:11.591Z,66.30
2023-04-02T15:11:05.718Z,66.30
2023-04-02T15:20:11.954Z,66.30
2023-04-02T15:24:03.318Z,66.20
2023-04-02T15:27:51.251Z,66.20
2023-04-02T15:31:34.371Z,66.20
2023-04-02T15:35:28.294Z,66.20
2023-04-02T15:39:34.523Z,66.20
2023-04-02T15:43:29.153Z,66.20
2023-04-02T15:47:30.849Z,66.80
2023-04-02T15:51:22.951Z,66.20
2023-04-02T15:55:22.523Z,66.20
2023-04-02T15:59:24.577Z,66.20
2023-04-02T16:03:27.472Z,66.20
2023-04-02T16:07:59.176Z,66.10
2023-04-02T16:11:41.156Z,66.20
2023-04-02T16:15:38.651Z,66.10
2023-04-02T16:19:27.418Z,66.40
2023-04-02T16:23:29.708Z,66.10
2023-04-02T16:27:43.140Z,66.10
2023-04-02T16:31:46.044Z,66.00
2023-04-02T16:35:42.397Z,66.10
2023-04-02T16:39:25.061Z,66.00
2023-04-02T16:43:09.877Z,66.00
2023-04-02T16:47:20.311Z,65.90
2023-04-02T16:51:29.053Z,66.00
2023-04-02T16:55:34.751Z,66.60
2023-04-02T16:59:31.903Z,66.00
2023-04-02T17:03:46.456Z,65.90
2023-04-02T17:07:50.906Z,66.00
2023-04-02T17:11:55.438Z,65.90
2023-04-02T17:15:41.572Z,65.80
2023-04-02T17:19:27.080Z,65.80
2023-04-02T17:23:16.874Z,65.80
2023-04-02T17:27:05.087Z,65.80
2023-04-02T17:30:51.120Z,65.80
2023-04-02T17:34:32.888Z,65.80
2023-04-02T17:38:32.025Z,65.70
2023-04-02T17:42:29.737Z,65.80
2023-04-02T17:46:35.753Z,65.70
2023-04-02T17:50:32.694Z,65.80
2023-04-02T17:54:44.936Z,65.70
2023-04-02T17:59:04.260Z,65.70
2023-04-02T18:03:11.274Z,65.70
2023-04-02T18:07:07.365Z,66.30
2023-04-02T18:11:19.505Z,65.60
2023-04-02T18:15:32.249Z,65.70
2023-04-02T18:19:43.810Z,65.60
2023-04-02T18:23:53.654Z,65.70
2023-04-02T18:27:53.398Z,65.70
2023-04-02T18:32:13.494Z,65.60
2023-04-02T18:36:17.516Z,66.20
2023-04-02T18:40:32.753Z,65.60
2023-04-02T18:44:40.299Z,65.70
2023-04-02T18:48:39.159Z,65.70
2023-04-02T18:52:21.468Z,65.60
2023-04-02T18:56:08.184Z,65.70
2023-04-02T19:00:04.556Z,65.60
2023-04-02T19:03:55.117Z,65.70
2023-04-02T19:07:40.598Z,65.70
2023-04-02T19:11:29.396Z,65.70
2023-04-02T19:15:17.426Z,65.80
2023-04-02T19:19:01.913Z,65.70
2023-04-02T19:23:12.891Z,65.80
2023-04-02T19:27:12.864Z,65.70
2023-04-02T19:31:23.358Z,65.80
2023-04-02T19:35:26.980Z,65.80
2023-04-02T19:39:19.926Z,65.80
2023-04-02T19:43:01.713Z,65.90
2023-04-02T19:46:44.334Z,65.80
2023-04-02T19:50:26.272Z,65.80
2023-04-02T19:54:09.238Z,65.80
2023-04-02T19:57:52.743Z,65.90
2023-04-02T20:01:36.438Z,65.80
2023-04-02T20:05:18.429Z,65.80
2023-04-02T20:09:00.592Z,65.80
2023-04-02T20:12:42.360Z,65.90
2023-04-02T20:16:24.208Z,65.90
2023-04-02T20:20:06.678Z,65.90
2023-04-02T20:23:48.507Z,66.50
2023-04-02T20:27:31.189Z,65.90
2023-04-02T20:31:16.211Z,65.90
2023-04-02T20:34:58.126Z,65.90
2023-04-02T20:38:39.910Z,65.90
2023-04-02T20:42:21.624Z,65.90
2023-04-02T20:46:05.697Z,65.90
2023-04-02T20:49:47.654Z,65.90
2023-04-02T20:53:30.987Z,65.90
2023-04-02T20:57:13.788Z,65.90
2023-04-02T21:01:04.775Z,65.90
2023-04-02T21:04:46.663Z,65.90
2023-04-02T21:08:28.407Z,65.90
2023-04-02T21:12:11.463Z,66.00
2023-04-02T21:15:53.333Z,66.00
2023-04-02T21:19:35.576Z,65.90
2023-04-02T21:23:17.347Z,65.90
2023-04-02T21:26:59.144Z,65.90
2023-04-02T21:30:40.844Z,65.90
2023-04-02T21:34:22.583Z,65.90
2023-04-02T21:38:04.276Z,65.90
2023-04-02T21:41:50.047Z,65.80
2023-04-02T21:45:31.782Z,65.90
2023-04-02T21:49:16.655Z,65.80
2023-04-02T21:52:58.414Z,66.40
2023-04-02T21:56:42.708Z,66.40
2023-04-02T22:00:26.422Z,65.80
2023-04-02T22:04:09.708Z,65.80
2023-04-02T22:07:51.508Z,65.70
2023-04-02T22:11:38.212Z,65.80
2023-04-02T22:15:19.930Z,65.70
2023-04-02T22:19:05.633Z,65.70
2023-04-02T22:22:47.424Z,65.70
2023-04-02T22:26:30.249Z,65.70
2023-04-02T22:30:12.330Z,65.70
2023-04-02T22:33:55.782Z,65.70
2023-04-02T22:37:37.540Z,65.60
2023-04-02T22:41:22.503Z,65.60
2023-04-02T22:45:04.925Z,65.60
2023-04-02T22:49:07.015Z,65.60
2023-04-02T22:52:49.020Z,65.60
2023-04-02T22:56:35.321Z,65.60
2023-04-02T23:00:18.297Z,65.50
2023-04-02T23:04:20.783Z,65.50
2023-04-02T23:08:02.562Z,65.50
2023-04-02T23:11:44.311Z,65.50
2023-04-02T23:15:26.089Z,65.50
2023-04-02T23:19:07.831Z,66.00
2023-04-02T23:22:49.600Z,65.40
2023-04-02T23:26:31.521Z,65.40
2023-04-02T23:30:13.512Z,65.40
2023-04-02T23:33:55.458Z,65.30
2023-04-02T23:37:37.221Z,65.30
2023-04-02T23:41:18.945Z,65.30
2023-04-02T23:45:00.709Z,65.30
2023-04-02T23:48:44.446Z,65.30
2023-04-02T23:52:26.220Z,65.30
2023-04-02T23:56:07.963Z,65.30
2023-04-02T23:59:49.682Z,65.20
